sensor_id;sensor_type;location;lat;lon;timestamp;P1;durP1;ratioP1;P2;durP2;ratioP2
25443;SDS011;13368;52.346;4.678;2023-05-17T00:00:00;15.3;;;4.4;;
25443;SDS011;13368;52.346;4.678;2023-05-17T00:05:00;11.9;;;4.1;;
25443;SDS011;13368;52.346;4.678;2023-05-17T00:10:00;13.6;;;4.6;;
25443;SDS011;13368;52.346;4.678;2023-05-17T00:15:00;12.1;;;5.0;;
25443;SDS011;13368;52.346;4.678;2023-05-17T00:20:00;16.5;;;5.1;;
25443;SDS011;13368;52.346;4.678;2023-05-17T00:25:00;11.9;;;4.2;;
25443;SDS011;13368;52.346;4.678;2023-05-17T00:30:00;13.1;;;4.3;;
25443;SDS011;13368;52.346;4.678;2023-05-17T00:35:00;11.3;;;4.8;;
25443;SDS011;13368;52.346;4.678;2023-05-17T00:40:00;12.6;;;4.6;;
25443;SDS011;13368;52.346;4.678;2023-05-17T00:45:00;18.7;;;5.4;;
25443;SDS011;13368;52.346;4.678;2023-05-17T00:50:00;10.8;;;4.4;;
25443;SDS011;13368;52.346;4.678;2023-05-17T00:55:00;16.7;;;4.7;;
25443;SDS011;13368;52.346;4.678;2023-05-17T01:00:00;12.4;;;4.5;;
25443;SDS011;13368;52.346;4.678;2023-05-17T01:05:00;13.6;;;4.2;;
25443;SDS011;13368;52.346;4.678;2023-05-17T01:10:00;15.2;;;4.6;;
25443;SDS011;13368;52.346;4.678;2023-05-17T01:15:03;12.8;;;5.0;;
25443;SDS011;13368;52.346;4.678;2023-05-17T01:20:01;14.3;;;4.5;;
25443;SDS011;13368;52.346;4.678;2023-05-17T01:25:06;13.3;;;4.0;;
25443;SDS011;13368;52.346;4.678;2023-05-17T01:30:00;12.9;;;4.2;;
25443;SDS011;13368;52.346;4.678;2023-05-17T01:35:02;12.6;;;4.8;;
25443;SDS011;13368;52.346;4.678;2023-05-17T01:40:00;13.8;;;4.7;;
25443;SDS011;13368;52.346;4.678;2023-05-17T01:45:02;14.0;;;4.6;;
25443;SDS011;13368;52.346;4.678;2023-05-17T01:50:00;14.5;;;4.8;;
25443;SDS011;13368;52.346;4.678;2023-05-17T01:55:03;16.2;;;4.2;;
25443;SDS011;13368;52.346;4.678;2023-05-17T02:00:01;13.7;;;4.6;;
25443;SDS011;13368;52.346;4.678;2023-05-17T02:05:00;16.3;;;4.2;;
25443;SDS011;13368;52.346;4.678;2023-05-17T02:10:00;12.5;;;4.2;;
25443;SDS011;13368;52.346;4.678;2023-05-17T02:15:00;11.7;;;4.3;;
25443;SDS011;13368;52.346;4.678;2023-05-17T02:20:00;10.0;;;3.4;;
25443;SDS011;13368;52.346;4.678;2023-05-17T02:25:00;10.8;;;3.8;;
25443;SDS011;13368;52.346;4.678;2023-05-17T02:30:00;9.8;;;4.2;;
25443;SDS011;13368;52.346;4.678;2023-05-17T02:35:00;8.6;;;3.6;;
25443;SDS011;13368;52.346;4.678;2023-05-17T02:40:00;13.3;;;3.9;;
25443;SDS011;13368;52.346;4.678;2023-05-17T02:45:00;11.6;;;3.7;;
25443;SDS011;13368;52.346;4.678;2023-05-17T02:50:00;14.6;;;4.3;;
25443;SDS011;13368;52.346;4.678;2023-05-17T02:55:00;10.3;;;3.3;;
25443;SDS011;13368;52.346;4.678;2023-05-17T03:00:00;16.1;;;4.2;;
25443;SDS011;13368;52.346;4.678;2023-05-17T03:05:00;9.9;;;3.7;;
25443;SDS011;13368;52.346;4.678;2023-05-17T03:10:00;12.9;;;3.3;;
25443;SDS011;13368;52.346;4.678;2023-05-17T03:15:00;10.7;;;3.0;;
25443;SDS011;13368;52.346;4.678;2023-05-17T03:20:00;8.9;;;3.6;;
25443;SDS011;13368;52.346;4.678;2023-05-17T03:25:00;20.4;;;3.5;;
25443;SDS011;13368;52.346;4.678;2023-05-17T03:30:00;12.5;;;3.1;;
25443;SDS011;13368;52.346;4.678;2023-05-17T03:35:00;11.1;;;3.2;;
25443;SDS011;13368;52.346;4.678;2023-05-17T03:40:00;9.1;;;3.1;;
25443;SDS011;13368;52.346;4.678;2023-05-17T03:45:00;13.9;;;3.4;;
25443;SDS011;13368;52.346;4.678;2023-05-17T03:50:00;14.3;;;3.2;;
25443;SDS011;13368;52.346;4.678;2023-05-17T03:55:00;8.6;;;3.2;;
25443;SDS011;13368;52.346;4.678;2023-05-17T04:00:00;11.5;;;3.2;;
25443;SDS011;13368;52.346;4.678;2023-05-17T04:05:00;13.8;;;3.3;;
25443;SDS011;13368;52.346;4.678;2023-05-17T04:10:00;8.3;;;3.0;;
25443;SDS011;13368;52.346;4.678;2023-05-17T04:15:01;11.1;;;3.1;;
25443;SDS011;13368;52.346;4.678;2023-05-17T04:20:00;10.2;;;2.9;;
25443;SDS011;13368;52.346;4.678;2023-05-17T04:25:00;9.1;;;3.7;;
25443;SDS011;13368;52.346;4.678;2023-05-17T04:30:00;12.5;;;3.2;;
25443;SDS011;13368;52.346;4.678;2023-05-17T04:35:00;11.5;;;3.2;;
25443;SDS011;13368;52.346;4.678;2023-05-17T04:40:00;11.8;;;3.7;;
25443;SDS011;13368;52.346;4.678;2023-05-17T04:45:00;14.0;;;3.8;;
25443;SDS011;13368;52.346;4.678;2023-05-17T04:50:00;14.8;;;4.0;;
25443;SDS011;13368;52.346;4.678;2023-05-17T04:55:00;11.6;;;3.7;;
25443;SDS011;13368;52.346;4.678;2023-05-17T05:00:00;10.3;;;4.3;;
25443;SDS011;13368;52.346;4.678;2023-05-17T05:05:00;15.7;;;4.2;;
25443;SDS011;13368;52.346;4.678;2023-05-17T05:10:00;13.8;;;3.8;;
25443;SDS011;13368;52.346;4.678;2023-05-17T05:15:00;17.3;;;3.6;;
25443;SDS011;13368;52.346;4.678;2023-05-17T05:20:00;12.3;;;3.3;;
25443;SDS011;13368;52.346;4.678;2023-05-17T05:25:00;12.8;;;3.9;;
25443;SDS011;13368;52.346;4.678;2023-05-17T05:30:00;13.2;;;3.6;;
25443;SDS011;13368;52.346;4.678;2023-05-17T05:35:00;11.4;;;3.5;;
25443;SDS011;13368;52.346;4.678;2023-05-17T05:40:00;9.6;;;2.9;;
25443;SDS011;13368;52.346;4.678;2023-05-17T05:45:00;11.0;;;2.2;;
25443;SDS011;13368;52.346;4.678;2023-05-17T05:50:00;11.7;;;3.5;;
25443;SDS011;13368;52.346;4.678;2023-05-17T05:55:00;6.5;;;2.2;;
25443;SDS011;13368;52.346;4.678;2023-05-17T06:00:00;6.6;;;2.3;;
25443;SDS011;13368;52.346;4.678;2023-05-17T06:05:00;10.6;;;2.5;;
25443;SDS011;13368;52.346;4.678;2023-05-17T06:10:00;9.3;;;2.3;;
25443;SDS011;13368;52.346;4.678;2023-05-17T06:15:00;6.5;;;2.2;;
25443;SDS011;13368;52.346;4.678;2023-05-17T06:20:00;7.0;;;2.3;;
25443;SDS011;13368;52.346;4.678;2023-05-17T06:25:00;7.4;;;2.8;;
25443;SDS011;13368;52.346;4.678;2023-05-17T06:30:00;9.5;;;2.6;;
25443;SDS011;13368;52.346;4.678;2023-05-17T06:35:00;8.1;;;2.5;;
25443;SDS011;13368;52.346;4.678;2023-05-17T06:40:00;10.9;;;2.9;;
25443;SDS011;13368;52.346;4.678;2023-05-17T06:45:00;11.1;;;2.7;;
25443;SDS011;13368;52.346;4.678;2023-05-17T06:50:00;7.8;;;2.3;;
25443;SDS011;13368;52.346;4.678;2023-05-17T06:55:00;9.2;;;2.3;;
25443;SDS011;13368;52.346;4.678;2023-05-17T07:00:00;9.3;;;2.2;;
25443;SDS011;13368;52.346;4.678;2023-05-17T07:05:00;7.5;;;2.4;;
25443;SDS011;13368;52.346;4.678;2023-05-17T07:10:00;8.4;;;2.1;;
25443;SDS011;13368;52.346;4.678;2023-05-17T07:15:00;10.6;;;2.9;;
25443;SDS011;13368;52.346;4.678;2023-05-17T07:20:00;7.1;;;2.2;;
25443;SDS011;13368;52.346;4.678;2023-05-17T07:25:00;8.0;;;2.2;;
25443;SDS011;13368;52.346;4.678;2023-05-17T07:30:00;3.9;;;1.5;;
25443;SDS011;13368;52.346;4.678;2023-05-17T07:35:00;5.5;;;1.9;;
25443;SDS011;13368;52.346;4.678;2023-05-17T07:40:00;5.6;;;2.0;;
25443;SDS011;13368;52.346;4.678;2023-05-17T07:45:00;6.0;;;2.3;;
25443;SDS011;13368;52.346;4.678;2023-05-17T07:50:00;unavailable;;;unavailable;;
25443;SDS011;13368;52.346;4.678;2023-05-17T07:55:00;unavailable;;;unavailable;;
25443;SDS011;13368;52.346;4.678;2023-05-17T08:00:00;unavailable;;;unavailable;;
25443;SDS011;13368;52.346;4.678;2023-05-17T08:05:00;unavailable;;;unavailable;;
25443;SDS011;13368;52.346;4.678;2023-05-17T08:10:00;unavailable;;;unavailable;;
25443;SDS011;13368;52.346;4.678;2023-05-17T08:15:00;unavailable;;;unavailable;;
25443;SDS011;13368;52.346;4.678;2023-05-17T08:20:00;unavailable;;;unavailable;;
25443;SDS011;13368;52.346;4.678;2023-05-17T08:25:00;unavailable;;;unavailable;;
25443;SDS011;13368;52.346;4.678;2023-05-17T08:30:00;unavailable;;;unavailable;;
25443;SDS011;13368;52.346;4.678;2023-05-17T08:35:00;unavailable;;;unavailable;;
25443;SDS011;13368;52.346;4.678;2023-05-17T08:40:00;unavailable;;;unavailable;;
25443;SDS011;13368;52.346;4.678;2023-05-17T08:45:00;unavailable;;;unavailable;;
25443;SDS011;13368;52.346;4.678;2023-05-17T08:50:00;unavailable;;;unavailable;;
25443;SDS011;13368;52.346;4.678;2023-05-17T08:55:00;unavailable;;;unavailable;;
25443;SDS011;13368;52.346;4.678;2023-05-17T09:00:00;unavailable;;;unavailable;;
25443;SDS011;13368;52.346;4.678;2023-05-17T09:05:00;unavailable;;;unavailable;;
25443;SDS011;13368;52.346;4.678;2023-05-17T09:10:00;unavailable;;;unavailable;;
25443;SDS011;13368;52.346;4.678;2023-05-17T09:20:00;unavailable;;;unavailable;;
25443;SDS011;13368;52.346;4.678;2023-05-17T09:25:00;unavailable;;;unavailable;;
25443;SDS011;13368;52.346;4.678;2023-05-17T09:30:00;unavailable;;;unavailable;;
25443;SDS011;13368;52.346;4.678;2023-05-17T09:35:00;unavailable;;;unavailable;;
25443;SDS011;13368;52.346;4.678;2023-05-17T09:40:00;unavailable;;;unavailable;;
25443;SDS011;13368;52.346;4.678;2023-05-17T09:45:00;unavailable;;;unavailable;;
25443;SDS011;13368;52.346;4.678;2023-05-17T09:50:00;unavailable;;;unavailable;;
25443;SDS011;13368;52.346;4.678;2023-05-17T09:55:00;unavailable;;;unavailable;;
25443;SDS011;13368;52.346;4.678;2023-05-17T10:00:00;unavailable;;;unavailable;;
25443;SDS011;13368;52.346;4.678;2023-05-17T10:05:00;unavailable;;;unavailable;;
25443;SDS011;13368;52.346;4.678;2023-05-17T10:10:00;unavailable;;;unavailable;;
25443;SDS011;13368;52.346;4.678;2023-05-17T10:15:00;unavailable;;;unavailable;;
25443;SDS011;13368;52.346;4.678;2023-05-17T10:20:00;unavailable;;;unavailable;;
25443;SDS011;13368;52.346;4.678;2023-05-17T10:25:00;unavailable;;;unavailable;;
25443;SDS011;13368;52.346;4.678;2023-05-17T10:30:00;unavailable;;;unavailable;;
25443;SDS011;13368;52.346;4.678;2023-05-17T10:35:00;unavailable;;;unavailable;;
25443;SDS011;13368;52.346;4.678;2023-05-17T10:40:00;unavailable;;;unavailable;;
25443;SDS011;13368;52.346;4.678;2023-05-17T10:45:00;unavailable;;;unavailable;;
25443;SDS011;13368;52.346;4.678;2023-05-17T10:50:00;unavailable;;;unavailable;;
25443;SDS011;13368;52.346;4.678;2023-05-17T10:55:00;unavailable;;;unavailable;;
25443;SDS011;13368;52.346;4.678;2023-05-17T11:00:00;unavailable;;;unavailable;;
25443;SDS011;13368;52.346;4.678;2023-05-17T11:05:00;unavailable;;;unavailable;;
25443;SDS011;13368;52.346;4.678;2023-05-17T11:10:02;unavailable;;;unavailable;;
25443;SDS011;13368;52.346;4.678;2023-05-17T11:15:01;unavailable;;;unavailable;;
25443;SDS011;13368;52.346;4.678;2023-05-17T11:20:00;unavailable;;;unavailable;;
25443;SDS011;13368;52.346;4.678;2023-05-17T11:25:00;unavailable;;;unavailable;;
25443;SDS011;13368;52.346;4.678;2023-05-17T11:30:06;unavailable;;;unavailable;;
25443;SDS011;13368;52.346;4.678;2023-05-17T11:35:00;unavailable;;;unavailable;;
25443;SDS011;13368;52.346;4.678;2023-05-17T11:40:00;unavailable;;;unavailable;;
25443;SDS011;13368;52.346;4.678;2023-05-17T11:45:00;unavailable;;;unavailable;;
25443;SDS011;13368;52.346;4.678;2023-05-17T11:50:01;unavailable;;;unavailable;;
25443;SDS011;13368;52.346;4.678;2023-05-17T11:55:00;unavailable;;;unavailable;;
25443;SDS011;13368;52.346;4.678;2023-05-17T12:00:00;unavailable;;;unavailable;;
25443;SDS011;13368;52.346;4.678;2023-05-17T12:05:00;unavailable;;;unavailable;;
25443;SDS011;13368;52.346;4.678;2023-05-17T12:10:00;unavailable;;;unavailable;;
25443;SDS011;13368;52.346;4.678;2023-05-17T12:15:00;unavailable;;;unavailable;;
25443;SDS011;13368;52.346;4.678;2023-05-17T12:20:05;unavailable;;;unavailable;;
25443;SDS011;13368;52.346;4.678;2023-05-17T12:25:00;unavailable;;;unavailable;;
25443;SDS011;13368;52.346;4.678;2023-05-17T12:35:00;unavailable;;;unavailable;;
25443;SDS011;13368;52.346;4.678;2023-05-17T12:40:00;unavailable;;;unavailable;;
25443;SDS011;13368;52.346;4.678;2023-05-17T12:45:00;unavailable;;;unavailable;;
25443;SDS011;13368;52.346;4.678;2023-05-17T12:50:00;unavailable;;;unavailable;;
25443;SDS011;13368;52.346;4.678;2023-05-17T12:55:01;unavailable;;;unavailable;;
25443;SDS011;13368;52.346;4.678;2023-05-17T13:00:04;unavailable;;;unavailable;;
25443;SDS011;13368;52.346;4.678;2023-05-17T13:10:00;unavailable;;;unavailable;;
25443;SDS011;13368;52.346;4.678;2023-05-17T13:15:00;unavailable;;;unavailable;;
25443;SDS011;13368;52.346;4.678;2023-05-17T13:20:00;unavailable;;;unavailable;;
25443;SDS011;13368;52.346;4.678;2023-05-17T13:25:01;unavailable;;;unavailable;;
25443;SDS011;13368;52.346;4.678;2023-05-17T13:30:00;unavailable;;;unavailable;;
25443;SDS011;13368;52.346;4.678;2023-05-17T13:35:00;unavailable;;;unavailable;;
25443;SDS011;13368;52.346;4.678;2023-05-17T13:40:00;unavailable;;;unavailable;;
25443;SDS011;13368;52.346;4.678;2023-05-17T13:45:00;unavailable;;;unavailable;;
25443;SDS011;13368;52.346;4.678;2023-05-17T13:50:00;unavailable;;;unavailable;;
25443;SDS011;13368;52.346;4.678;2023-05-17T13:55:00;unavailable;;;unavailable;;
25443;SDS011;13368;52.346;4.678;2023-05-17T14:00:00;unavailable;;;unavailable;;
25443;SDS011;13368;52.346;4.678;2023-05-17T14:05:00;unavailable;;;unavailable;;
25443;SDS011;13368;52.346;4.678;2023-05-17T14:10:00;unavailable;;;unavailable;;
25443;SDS011;13368;52.346;4.678;2023-05-17T14:15:00;unavailable;;;unavailable;;
25443;SDS011;13368;52.346;4.678;2023-05-17T14:20:00;unavailable;;;unavailable;;
25443;SDS011;13368;52.346;4.678;2023-05-17T14:25:00;unavailable;;;unavailable;;
25443;SDS011;13368;52.346;4.678;2023-05-17T14:30:00;unavailable;;;unavailable;;
25443;SDS011;13368;52.346;4.678;2023-05-17T14:35:00;unavailable;;;unavailable;;
25443;SDS011;13368;52.346;4.678;2023-05-17T14:40:00;unavailable;;;unavailable;;
25443;SDS011;13368;52.346;4.678;2023-05-17T14:45:00;unavailable;;;unavailable;;
25443;SDS011;13368;52.346;4.678;2023-05-17T14:50:00;unavailable;;;unavailable;;
25443;SDS011;13368;52.346;4.678;2023-05-17T14:55:00;unavailable;;;unavailable;;
25443;SDS011;13368;52.346;4.678;2023-05-17T15:00:00;unavailable;;;unavailable;;
25443;SDS011;13368;52.346;4.678;2023-05-17T15:05:00;unavailable;;;unavailable;;
25443;SDS011;13368;52.346;4.678;2023-05-17T15:10:00;unavailable;;;unavailable;;
25443;SDS011;13368;52.346;4.678;2023-05-17T15:15:00;unavailable;;;unavailable;;
25443;SDS011;13368;52.346;4.678;2023-05-17T15:20:00;unavailable;;;unavailable;;
25443;SDS011;13368;52.346;4.678;2023-05-17T15:25:00;unavailable;;;unavailable;;
25443;SDS011;13368;52.346;4.678;2023-05-17T15:30:00;unavailable;;;unavailable;;
25443;SDS011;13368;52.346;4.678;2023-05-17T15:35:00;unavailable;;;unavailable;;
25443;SDS011;13368;52.346;4.678;2023-05-17T15:40:00;unavailable;;;unavailable;;
25443;SDS011;13368;52.346;4.678;2023-05-17T15:45:00;unavailable;;;unavailable;;
25443;SDS011;13368;52.346;4.678;2023-05-17T15:50:00;unavailable;;;unavailable;;
25443;SDS011;13368;52.346;4.678;2023-05-17T15:55:00;8.1;;;2.9;;
25443;SDS011;13368;52.346;4.678;2023-05-17T16:00:00;7.7;;;2.6;;
25443;SDS011;13368;52.346;4.678;2023-05-17T16:05:00;6.6;;;2.6;;
25443;SDS011;13368;52.346;4.678;2023-05-17T16:10:00;9.1;;;3.1;;
25443;SDS011;13368;52.346;4.678;2023-05-17T16:15:00;6.9;;;2.9;;
25443;SDS011;13368;52.346;4.678;2023-05-17T16:20:00;6.5;;;2.6;;
25443;SDS011;13368;52.346;4.678;2023-05-17T16:25:00;8.6;;;2.7;;
25443;SDS011;13368;52.346;4.678;2023-05-17T16:30:00;8.8;;;2.4;;
25443;SDS011;13368;52.346;4.678;2023-05-17T16:35:00;6.9;;;2.8;;
25443;SDS011;13368;52.346;4.678;2023-05-17T16:40:00;9.8;;;2.9;;
25443;SDS011;13368;52.346;4.678;2023-05-17T16:45:00;6.5;;;2.4;;
25443;SDS011;13368;52.346;4.678;2023-05-17T16:50:00;14.0;;;3.6;;
25443;SDS011;13368;52.346;4.678;2023-05-17T16:55:00;7.3;;;2.3;;
25443;SDS011;13368;52.346;4.678;2023-05-17T17:00:00;7.5;;;2.5;;
25443;SDS011;13368;52.346;4.678;2023-05-17T17:05:00;9.6;;;3.2;;
25443;SDS011;13368;52.346;4.678;2023-05-17T17:10:00;9.3;;;2.9;;
25443;SDS011;13368;52.346;4.678;2023-05-17T17:15:00;7.5;;;2.3;;
25443;SDS011;13368;52.346;4.678;2023-05-17T17:20:00;10.6;;;2.6;;
25443;SDS011;13368;52.346;4.678;2023-05-17T17:25:01;6.4;;;2.5;;
25443;SDS011;13368;52.346;4.678;2023-05-17T17:30:00;9.5;;;2.6;;
25443;SDS011;13368;52.346;4.678;2023-05-17T17:35:00;8.5;;;2.6;;
25443;SDS011;13368;52.346;4.678;2023-05-17T17:40:00;6.5;;;2.4;;
25443;SDS011;13368;52.346;4.678;2023-05-17T17:45:00;7.7;;;2.6;;
25443;SDS011;13368;52.346;4.678;2023-05-17T17:50:00;8.3;;;3.1;;
25443;SDS011;13368;52.346;4.678;2023-05-17T17:55:00;7.8;;;2.5;;
25443;SDS011;13368;52.346;4.678;2023-05-17T18:00:00;6.5;;;2.9;;
25443;SDS011;13368;52.346;4.678;2023-05-17T18:05:00;6.6;;;2.7;;
25443;SDS011;13368;52.346;4.678;2023-05-17T18:10:00;10.3;;;3.2;;
25443;SDS011;13368;52.346;4.678;2023-05-17T18:15:00;6.8;;;2.9;;
25443;SDS011;13368;52.346;4.678;2023-05-17T18:20:00;9.3;;;3.4;;
25443;SDS011;13368;52.346;4.678;2023-05-17T18:25:00;8.8;;;3.0;;
25443;SDS011;13368;52.346;4.678;2023-05-17T18:30:00;10.4;;;3.2;;
25443;SDS011;13368;52.346;4.678;2023-05-17T18:35:00;10.0;;;3.3;;
25443;SDS011;13368;52.346;4.678;2023-05-17T18:40:00;8.6;;;2.9;;
25443;SDS011;13368;52.346;4.678;2023-05-17T18:45:00;12.4;;;3.3;;
25443;SDS011;13368;52.346;4.678;2023-05-17T18:50:00;6.2;;;2.9;;
25443;SDS011;13368;52.346;4.678;2023-05-17T18:55:00;8.0;;;3.0;;
25443;SDS011;13368;52.346;4.678;2023-05-17T19:00:00;11.1;;;2.8;;
25443;SDS011;13368;52.346;4.678;2023-05-17T19:05:00;7.3;;;2.9;;
25443;SDS011;13368;52.346;4.678;2023-05-17T19:10:00;6.0;;;2.9;;
25443;SDS011;13368;52.346;4.678;2023-05-17T19:15:00;9.0;;;3.9;;
25443;SDS011;13368;52.346;4.678;2023-05-17T19:20:00;8.1;;;2.6;;
25443;SDS011;13368;52.346;4.678;2023-05-17T19:25:00;7.1;;;2.9;;
25443;SDS011;13368;52.346;4.678;2023-05-17T19:30:00;5.2;;;2.7;;
25443;SDS011;13368;52.346;4.678;2023-05-17T19:35:00;9.8;;;3.1;;
25443;SDS011;13368;52.346;4.678;2023-05-17T19:40:00;8.6;;;2.9;;
25443;SDS011;13368;52.346;4.678;2023-05-17T19:45:00;6.9;;;2.6;;
25443;SDS011;13368;52.346;4.678;2023-05-17T19:50:00;7.9;;;2.9;;
25443;SDS011;13368;52.346;4.678;2023-05-17T19:55:00;8.5;;;3.3;;
25443;SDS011;13368;52.346;4.678;2023-05-17T20:00:00;6.1;;;3.0;;
25443;SDS011;13368;52.346;4.678;2023-05-17T20:05:00;9.0;;;2.8;;
25443;SDS011;13368;52.346;4.678;2023-05-17T20:10:00;6.0;;;2.7;;
25443;SDS011;13368;52.346;4.678;2023-05-17T20:15:00;7.4;;;3.1;;
25443;SDS011;13368;52.346;4.678;2023-05-17T20:20:00;4.3;;;3.1;;
25443;SDS011;13368;52.346;4.678;2023-05-17T20:25:00;7.8;;;3.5;;
25443;SDS011;13368;52.346;4.678;2023-05-17T20:30:00;9.0;;;3.8;;
25443;SDS011;13368;52.346;4.678;2023-05-17T20:35:00;6.5;;;3.1;;
25443;SDS011;13368;52.346;4.678;2023-05-17T20:40:00;6.9;;;3.3;;
25443;SDS011;13368;52.346;4.678;2023-05-17T20:45:00;6.6;;;3.1;;
25443;SDS011;13368;52.346;4.678;2023-05-17T20:50:00;8.7;;;3.0;;
25443;SDS011;13368;52.346;4.678;2023-05-17T20:55:00;5.3;;;3.0;;
25443;SDS011;13368;52.346;4.678;2023-05-17T21:00:00;9.5;;;2.9;;
25443;SDS011;13368;52.346;4.678;2023-05-17T21:05:00;7.2;;;3.0;;
25443;SDS011;13368;52.346;4.678;2023-05-17T21:10:00;8.5;;;3.0;;
25443;SDS011;13368;52.346;4.678;2023-05-17T21:15:00;7.2;;;3.5;;
25443;SDS011;13368;52.346;4.678;2023-05-17T21:20:00;7.4;;;3.4;;
25443;SDS011;13368;52.346;4.678;2023-05-17T21:25:00;9.1;;;3.3;;
25443;SDS011;13368;52.346;4.678;2023-05-17T21:30:00;7.8;;;3.0;;
25443;SDS011;13368;52.346;4.678;2023-05-17T21:35:00;5.0;;;3.1;;
25443;SDS011;13368;52.346;4.678;2023-05-17T21:40:00;8.5;;;3.5;;
25443;SDS011;13368;52.346;4.678;2023-05-17T21:45:00;8.4;;;3.2;;
25443;SDS011;13368;52.346;4.678;2023-05-17T21:50:00;7.2;;;3.2;;
25443;SDS011;13368;52.346;4.678;2023-05-17T21:55:00;7.4;;;3.5;;
25443;SDS011;13368;52.346;4.678;2023-05-17T22:00:00;5.9;;;3.4;;
25443;SDS011;13368;52.346;4.678;2023-05-17T22:05:00;7.6;;;3.3;;
25443;SDS011;13368;52.346;4.678;2023-05-17T22:10:00;8.4;;;3.1;;
25443;SDS011;13368;52.346;4.678;2023-05-17T22:15:00;7.7;;;3.6;;
25443;SDS011;13368;52.346;4.678;2023-05-17T22:20:00;9.0;;;3.4;;
25443;SDS011;13368;52.346;4.678;2023-05-17T22:25:00;6.7;;;3.4;;
25443;SDS011;13368;52.346;4.678;2023-05-17T22:30:00;6.1;;;3.5;;
25443;SDS011;13368;52.346;4.678;2023-05-17T22:35:00;7.8;;;3.5;;
25443;SDS011;13368;52.346;4.678;2023-05-17T22:40:00;7.7;;;3.5;;
25443;SDS011;13368;52.346;4.678;2023-05-17T22:45:00;8.5;;;4.3;;
25443;SDS011;13368;52.346;4.678;2023-05-17T22:50:00;7.3;;;3.5;;
25443;SDS011;13368;52.346;4.678;2023-05-17T22:55:00;7.5;;;3.2;;
25443;SDS011;13368;52.346;4.678;2023-05-17T23:00:00;6.6;;;3.3;;
25443;SDS011;13368;52.346;4.678;2023-05-17T23:05:00;6.9;;;3.2;;
25443;SDS011;13368;52.346;4.678;2023-05-17T23:10:00;12.5;;;3.8;;
25443;SDS011;13368;52.346;4.678;2023-05-17T23:15:00;6.5;;;3.6;;
25443;SDS011;13368;52.346;4.678;2023-05-17T23:20:00;9.0;;;3.8;;
25443;SDS011;13368;52.346;4.678;2023-05-17T23:25:00;7.7;;;3.6;;
25443;SDS011;13368;52.346;4.678;2023-05-17T23:30:00;7.7;;;3.4;;
25443;SDS011;13368;52.346;4.678;2023-05-17T23:35:00;5.9;;;3.7;;
25443;SDS011;13368;52.346;4.678;2023-05-17T23:40:00;8.9;;;4.0;;
25443;SDS011;13368;52.346;4.678;2023-05-17T23:45:00;7.1;;;4.1;;
25443;SDS011;13368;52.346;4.678;2023-05-17T23:50:00;7.8;;;4.1;;
25443;SDS011;13368;52.346;4.678;2023-05-17T23:55:00;10.6;;;4.0;;
